Kezdőlap
METAR-TAF:

METAR-TAF

Repülőterek :

légibázis

Tafraoui, Algéria

földrajzi szélesség: 35-32-33N, földrajzi hosszúság: 000-31-56W, magasság: 112 m

Jelenlegi meteorológiai megfigyelések

A jelentés 41 perccel ezelõtt készült, 12:00 UTC
Kelet-északkeleti szél 4 kt
Hőmérséklet 33°C
Páratartalom 34%
Légköri nyomás 1010 hPa
Látótávolság: 8000 m

METAR: DAOL 301200Z 06004KT 8000 NSC 33/15 Q1010

Idő: 13:41 (12:41 UTC)


TAF: hiányzik

Meteorológiai megfigyelések és előrejelzések több, mint 4000 repülőtéren (METAR és TAF jelentéseket).

A térképen piros és sárga pontok jelzik az elérhető meteorológiai állomásokat.

Mozgassa az egeret a pont fölött, hogy megjelenjen az állomás neve.

Azután kattintson az időjárási megfigyelések és előrejelzések megtekintéséhez.

A térkép megváltoztatása: kattintson a fekete keresztel jelölt zöld gombra ráközelítéshez, a vonallal jelölt zöld gombra távolításhoz, vagy a zöld nyilakra a szomszédos térképek eléréséhez.


METAR-TAF: